Time;durP1;ratioP1;P1;durP2;ratioP2;P2;SDS_P1;SDS_P2;PMS_P1;PMS_P2;Temp;Humidity;BMP_temperature;BMP_pressure;BME280_temperature;BME280_humidity;BME280_pressure;Samples;Min_cycle;Max_cycle;Signal;HPM_P1;HPM_P2
2023/04/21 00:00:30;;;;;;;24.50;13.17;;;5.80;92.50;;;;;;5054908;28;20474;-61
2023/04/21 00:02:57;;;;;;;23.13;14.10;;;;;;;;;;5055689;28;20651;-61
2023/04/21 00:05:24;;;;;;;26.93;14.30;;;5.40;92.60;;;;;;5053456;28;20491;-60
2023/04/21 00:07:51;;;;;;;29.43;15.30;;;5.40;92.40;;;;;;5054468;28;20475;-61
2023/04/21 00:10:18;;;;;;;23.90;14.40;;;;;;;;;;5052006;28;20964;-61
2023/04/21 00:12:45;;;;;;;23.60;12.47;;;5.30;92.10;;;;;;5051967;28;20510;-61
2023/04/21 00:15:13;;;;;;;23.50;14.13;;;5.20;92.20;;;;;;5053548;28;20511;-60
2023/04/21 00:17:40;;;;;;;23.27;13.77;;;5.10;92.30;;;;;;5054218;28;20491;-61
2023/04/21 00:20:09;;;;;;;29.43;14.67;;;4.90;92.40;;;;;;5051675;28;20875;-60
2023/04/21 00:22:36;;;;;;;23.93;13.07;;;4.90;92.60;;;;;;5054105;28;20551;-61
2023/04/21 00:25:03;;;;;;;32.53;16.23;;;4.90;92.80;;;;;;5054796;28;20480;-61
2023/04/21 00:27:29;;;;;;;24.33;14.20;;;4.90;92.80;;;;;;5053776;28;21217;-60
2023/04/21 00:29:56;;;;;;;29.10;15.10;;;4.90;92.70;;;;;;5053328;28;20852;-60
2023/04/21 00:32:24;;;;;;;32.13;16.93;;;4.90;92.90;;;;;;5053622;28;20483;-60
2023/04/21 00:34:51;;;;;;;34.53;16.40;;;4.90;92.90;;;;;;5056924;28;20490;-61
2023/04/21 00:37:18;;;;;;;28.93;15.10;;;;;;;;;;5055196;28;20484;-61
2023/04/21 00:39:45;;;;;;;30.37;15.13;;;4.90;93.20;;;;;;5055104;28;20480;-61
2023/04/21 00:42:14;;;;;;;42.90;15.20;;;4.90;93.40;;;;;;5056058;28;20471;-60
2023/04/21 00:44:41;;;;;;;25.93;13.90;;;4.70;92.90;;;;;;5057122;28;21000;-61
2023/04/21 00:47:08;;;;;;;26.40;14.43;;;4.70;92.50;;;;;;5052108;28;21007;-61
2023/04/21 00:49:36;;;;;;;24.97;13.70;;;4.70;92.50;;;;;;5053920;28;20478;-60
2023/04/21 00:52:05;;;;;;;27.00;14.30;;;4.60;92.60;;;;;;5042030;28;20475;-61
2023/04/21 00:54:34;;;;;;;30.80;15.20;;;4.60;92.60;;;;;;5049877;28;21001;-60
2023/04/21 00:57:02;;;;;;;25.00;15.00;;;4.60;92.50;;;;;;5059083;28;20482;-60
2023/04/21 00:59:29;;;;;;;26.70;13.40;;;4.60;92.70;;;;;;5061453;28;20471;-61
2023/04/21 01:01:56;;;;;;;24.63;12.33;;;4.60;92.70;;;;;;5070796;28;20473;-61
2023/04/21 01:04:22;;;;;;;33.87;16.83;;;4.60;92.60;;;;;;5069815;28;20485;-60
2023/04/21 01:06:51;;;;;;;31.20;16.20;;;;;;;;;;5060750;28;20894;-61
2023/04/21 01:09:18;;;;;;;24.70;13.67;;;4.50;92.60;;;;;;5056628;28;20481;-61
2023/04/21 01:12:01;;;;;;;32.20;13.80;;;4.40;92.80;;;;;;5072293;28;21052;-60
2023/04/21 01:14:27;;;;;;;46.67;15.47;;;4.40;92.90;;;;;;5066930;28;20642;-60
2023/04/21 01:16:54;;;;;;;30.50;14.47;;;4.40;92.80;;;;;;5071868;28;20478;-60
2023/04/21 01:19:21;;;;;;;25.87;14.07;;;4.40;92.80;;;;;;5073548;28;20498;-61
2023/04/21 01:21:52;;;;;;;41.50;16.53;;;4.40;92.60;;;;;;5073182;28;20585;-60
2023/04/21 01:24:19;;;;;;;24.13;13.80;;;4.40;92.70;;;;;;5073745;28;20483;-60
2023/04/21 01:26:48;;;;;;;28.17;15.07;;;4.40;92.80;;;;;;5074248;28;20481;-61
2023/04/21 01:29:15;;;;;;;37.37;16.47;;;4.40;92.70;;;;;;5070622;28;20478;-60
2023/04/21 01:31:42;;;;;;;30.70;14.50;;;4.40;92.60;;;;;;5073183;28;20510;-61
2023/04/21 01:34:08;;;;;;;32.80;16.37;;;4.40;92.50;;;;;;5059849;28;20478;-61
2023/04/21 01:36:36;;;;;;;26.03;11.80;;;4.30;92.40;;;;;;5072614;28;20483;-60
2023/04/21 01:39:04;;;;;;;37.80;16.77;;;4.20;92.50;;;;;;5070086;28;20569;-61
2023/04/21 01:41:31;;;;;;;36.67;17.40;;;4.20;93.00;;;;;;5073895;28;20518;-60
2023/04/21 01:43:58;;;;;;;34.63;13.83;;;4.20;92.90;;;;;;5071019;28;20479;-60
2023/04/21 01:46:24;;;;;;;156.30;62.13;;;4.20;92.70;;;;;;5057212;28;20490;-60
2023/04/21 01:48:51;;;;;;;405.00;135.53;;;4.20;92.60;;;;;;5047276;28;20482;-61
2023/04/21 01:51:19;;;;;;;80.13;31.80;;;4.20;92.70;;;;;;5070353;28;20511;-60
2023/04/21 01:53:46;;;;;;;33.27;15.80;;;4.20;92.60;;;;;;5072191;28;20474;-60
2023/04/21 01:56:15;;;;;;;33.40;15.57;;;;;;;;;;5070053;28;20978;-61
2023/04/21 01:58:42;;;;;;;35.73;14.47;;;1.60;91.80;;;;;;5068531;28;20478;-60
2023/04/21 02:01:08;;;;;;;52.17;20.73;;;4.00;93.00;;;;;;5071459;28;20482;-61
2023/04/21 02:03:35;;;;;;;37.47;15.90;;;4.00;93.10;;;;;;5072258;28;21411;-60
2023/04/21 02:06:02;;;;;;;36.80;13.90;;;4.00;92.80;;;;;;5070131;28;20470;-60
2023/04/21 02:08:29;;;;;;;29.93;12.60;;;3.90;92.50;;;;;;5074366;28;20474;-60
2023/04/21 02:10:56;;;;;;;40.53;17.33;;;3.90;92.40;;;;;;5073495;28;20478;-60
2023/04/21 02:13:24;;;;;;;45.63;17.00;;;3.90;92.40;;;;;;5073895;28;20483;-60
2023/04/21 02:15:51;;;;;;;24.57;12.93;;;3.90;92.40;;;;;;5072386;28;20978;-60
2023/04/21 02:18:19;;;;;;;28.63;13.87;;;3.90;92.30;;;;;;5073816;28;20493;-60
2023/04/21 02:20:46;;;;;;;31.00;14.30;;;;;;;;;;5073151;28;20874;-61
2023/04/21 02:23:12;;;;;;;24.00;12.27;;;3.90;92.40;;;;;;5074278;28;20478;-61
2023/04/21 02:25:39;;;;;;;21.47;13.17;;;3.80;92.40;;;;;;5060621;28;20479;-60
2023/04/21 02:28:06;;;;;;;33.43;14.93;;;3.80;92.50;;;;;;5074398;28;20986;-61
2023/04/21 02:30:34;;;;;;;30.70;14.57;;;3.80;92.50;;;;;;5076117;28;20486;-60
2023/04/21 02:33:01;;;;;;;30.10;13.80;;;3.70;92.40;;;;;;5074196;28;20478;-60
2023/04/21 02:35:27;;;;;;;26.27;13.10;;;3.60;92.10;;;;;;5076440;28;21002;-62
2023/04/21 02:37:54;;;;;;;29.00;14.13;;;3.60;92.40;;;;;;5075919;28;21363;-60
2023/04/21 02:40:21;;;;;;;31.63;14.70;;;3.60;92.30;;;;;;5078552;28;20864;-61
2023/04/21 02:42:48;;;;;;;26.63;11.30;;;3.50;92.30;;;;;;5078967;28;20477;-60
2023/04/21 02:45:15;;;;;;;28.93;14.30;;;3.50;92.30;;;;;;5055716;28;20477;-60
2023/04/21 02:47:43;;;;;;;31.27;14.57;;;3.50;92.40;;;;;;5054661;28;20558;-60
2023/04/21 02:50:13;;;;;;;31.37;15.17;;;3.50;92.40;;;;;;5076307;28;21278;-61
2023/04/21 02:52:39;;;;;;;26.27;14.50;;;3.50;92.50;;;;;;5078693;28;21098;-61
2023/04/21 02:55:07;;;;;;;39.53;18.90;;;3.50;92.60;;;;;;5079629;28;21196;-60
2023/04/21 02:57:34;;;;;;;45.40;19.77;;;3.40;92.50;;;;;;5077000;28;20990;-60
2023/04/21 03:00:00;;;;;;;36.30;18.30;;;3.40;92.50;;;;;;5077788;28;20872;-60
2023/04/21 03:02:27;;;;;;;35.60;18.23;;;3.50;92.50;;;;;;5075096;28;20490;-60
2023/04/21 03:04:55;;;;;;;33.30;16.53;;;3.40;92.60;;;;;;5076211;28;20471;-61
2023/04/21 03:07:22;;;;;;;39.73;18.13;;;3.50;92.60;;;;;;5066223;28;20825;-60
2023/04/21 03:09:49;;;;;;;34.60;17.63;;;3.40;92.80;;;;;;5065087;28;20872;-61
2023/04/21 03:12:15;;;;;;;41.97;18.37;;;3.40;93.20;;;;;;5070022;28;20477;-61
2023/04/21 03:14:42;;;;;;;41.13;17.90;;;3.50;93.70;;;;;;5065847;28;20510;-61
2023/04/21 03:17:09;;;;;;;37.10;19.70;;;3.60;93.80;;;;;;5038802;28;20480;-61
2023/04/21 03:19:35;;;;;;;30.47;13.80;;;3.50;93.00;;;;;;5060270;28;20947;-61
2023/04/21 03:22:05;;;;;;;27.67;14.03;;;3.60;92.90;;;;;;5078416;28;20481;-60
2023/04/21 03:24:32;;;;;;;31.23;14.43;;;3.60;92.90;;;;;;5053454;28;20478;-60
2023/04/21 03:26:58;;;;;;;23.80;11.67;;;3.60;93.10;;;;;;5067405;28;20482;-60
2023/04/21 03:29:25;;;;;;;39.50;16.97;;;3.60;93.90;;;;;;5077013;28;20482;-60
2023/04/21 03:31:52;;;;;;;35.80;17.30;;;3.70;94.60;;;;;;5051801;28;20848;-61
2023/04/21 03:34:19;;;;;;;49.13;20.20;;;3.90;95.40;;;;;;5072308;28;21034;-62
2023/04/21 03:36:45;;;;;;;44.50;20.90;;;3.90;95.70;;;;;;5056502;28;20479;-61
2023/04/21 03:39:13;;;;;;;41.27;21.37;;;4.10;95.80;;;;;;5059491;28;20487;-60
2023/04/21 03:41:40;;;;;;;32.67;16.17;;;4.20;95.70;;;;;;5078573;28;20475;-61
2023/04/21 03:44:07;;;;;;;31.40;15.27;;;4.10;94.20;;;;;;5075389;28;20829;-60
2023/04/21 03:46:34;;;;;;;33.10;15.93;;;4.10;94.10;;;;;;5052644;28;20471;-61
2023/04/21 03:49:00;;;;;;;35.63;15.53;;;4.10;94.20;;;;;;5061567;28;20833;-61
2023/04/21 03:51:27;;;;;;;31.27;15.77;;;4.20;94.40;;;;;;5059443;28;20482;-60
2023/04/21 03:53:54;;;;;;;33.37;16.10;;;4.10;93.80;;;;;;5064955;28;20487;-60
2023/04/21 03:56:22;;;;;;;46.97;17.83;;;4.00;93.70;;;;;;5047682;28;20478;-61
2023/04/21 03:58:49;;;;;;;39.57;16.80;;;4.00;93.80;;;;;;5057628;28;21002;-61
2023/04/21 04:01:15;;;;;;;27.00;15.83;;;4.10;94.10;;;;;;5054101;28;20479;-61
2023/04/21 04:03:42;;;;;;;35.93;17.37;;;4.10;94.20;;;;;;5054004;28;20570;-61
2023/04/21 04:06:09;;;;;;;38.57;17.03;;;4.10;94.20;;;;;;5055702;28;20486;-60
2023/04/21 04:08:35;;;;;;;34.10;16.87;;;5.90;94.90;;;;;;5055904;28;20869;-61
2023/04/21 04:11:02;;;;;;;29.83;14.33;;;4.20;94.20;;;;;;5061669;28;20483;-60
2023/04/21 04:13:30;;;;;;;40.80;16.87;;;4.30;94.70;;;;;;5055853;28;20571;-61
2023/04/21 04:15:57;;;;;;;54.00;20.77;;;4.40;95.20;;;;;;5057733;28;20501;-60
2023/04/21 04:18:24;;;;;;;63.47;20.00;;;4.40;95.60;;;;;;5053704;28;20491;-64
2023/04/21 04:20:51;;;;;;;30.60;14.67;;;4.50;95.00;;;;;;5059875;28;20510;-61
2023/04/21 04:23:18;;;;;;;41.27;17.37;;;4.50;94.70;;;;;;5059120;28;20498;-60
2023/04/21 04:25:46;;;;;;;37.57;17.77;;;4.50;95.50;;;;;;5052653;28;20486;-61
2023/04/21 04:28:14;;;;;;;35.27;18.50;;;4.60;95.90;;;;;;5068194;28;20552;-60
2023/04/21 04:30:42;;;;;;;41.27;20.80;;;;;;;;;;5055489;28;20530;-60
2023/04/21 04:33:10;;;;;;;52.70;22.33;;;4.70;95.80;;;;;;5061864;28;20482;-60
2023/04/21 04:35:37;;;;;;;41.60;21.87;;;4.70;95.60;;;;;;5058577;28;20483;-60
2023/04/21 04:38:03;;;;;;;37.57;18.30;;;4.70;95.50;;;;;;5058238;28;20490;-59
2023/04/21 04:40:32;;;;;;;48.70;21.70;;;4.80;95.40;;;;;;5055128;28;20562;-60
2023/04/21 04:42:58;;;;;;;42.77;21.40;;;4.80;95.30;;;;;;5044202;28;20550;-60
2023/04/21 04:45:27;;;;;;;38.87;19.50;;;4.80;95.50;;;;;;5070069;28;20491;-60
2023/04/21 04:47:55;;;;;;;41.47;19.60;;;4.80;95.80;;;;;;5057420;28;20892;-59
2023/04/21 04:50:23;;;;;;;42.50;20.77;;;4.80;96.20;;;;;;5056203;28;20513;-60
2023/04/21 04:52:50;;;;;;;35.17;19.00;;;4.80;96.30;;;;;;5059039;28;20523;-60
2023/04/21 04:55:17;;;;;;;46.03;21.50;;;4.80;96.30;;;;;;5056316;28;20479;-60
2023/04/21 04:57:44;;;;;;;41.30;20.60;;;4.80;96.50;;;;;;5065030;28;20712;-60
2023/04/21 05:00:13;;;;;;;37.33;19.53;;;;;;;;;;5070106;28;20486;-60
2023/04/21 05:02:40;;;;;;;42.37;20.80;;;4.90;96.70;;;;;;5071171;28;20486;-60
2023/04/21 05:05:08;;;;;;;36.70;19.03;;;4.90;96.70;;;;;;5075652;28;20487;-60
2023/04/21 05:07:35;;;;;;;40.27;20.90;;;4.80;97.00;;;;;;5074440;28;20490;-60
2023/04/21 05:10:03;;;;;;;44.67;21.80;;;4.90;97.10;;;;;;5079276;28;20487;-61
2023/04/21 05:12:30;;;;;;;41.90;19.10;;;5.00;97.20;;;;;;5076602;28;20972;-60
2023/04/21 05:14:57;;;;;;;69.37;20.80;;;5.10;97.10;;;;;;5083964;28;20486;-60
2023/04/21 05:17:24;;;;;;;47.67;20.10;;;5.20;97.10;;;;;;5057544;28;20475;-60
2023/04/21 05:19:51;;;;;;;48.07;23.07;;;5.20;97.30;;;;;;5071277;28;20483;-60
2023/04/21 05:22:19;;;;;;;43.37;20.50;;;5.20;97.40;;;;;;5060807;28;20823;-60
2023/04/21 05:24:46;;;;;;;46.87;21.30;;;;;;;;;;5093145;28;20474;-61
2023/04/21 05:27:13;;;;;;;57.43;23.53;;;;;;;;;;5072937;28;21014;-60
2023/04/21 05:29:39;;;;;;;67.43;21.77;;;2.60;96.00;;;;;;5097850;28;20481;-60
2023/04/21 05:32:07;;;;;;;87.10;23.47;;;;;;;;;;5080570;28;20985;-60
2023/04/21 05:34:35;;;;;;;96.07;25.17;;;;;;;;;;5072878;28;20844;-60
2023/04/21 05:37:01;;;;;;;66.43;22.50;;;5.80;97.30;;;;;;5074181;28;20517;-61
2023/04/21 05:39:30;;;;;;;73.80;23.40;;;5.80;97.30;;;;;;5075917;28;20967;-61
2023/04/21 05:41:57;;;;;;;58.03;22.33;;;5.90;97.50;;;;;;5048698;28;20475;-60
2023/04/21 05:44:24;;;;;;;56.63;20.67;;;6.00;97.60;;;;;;5084929;28;20881;-60
2023/04/21 05:46:51;;;;;;;60.80;25.23;;;6.10;97.80;;;;;;5078076;28;20510;-60
2023/04/21 05:49:17;;;;;;;56.73;24.70;;;6.20;97.90;;;;;;5065797;28;21148;-60
2023/04/21 05:51:44;;;;;;;53.00;22.93;;;6.30;98.00;;;;;;5078025;28;20900;-60
2023/04/21 05:54:11;;;;;;;54.30;26.93;;;;;;;;;;5080923;28;20470;-60
2023/04/21 05:56:39;;;;;;;44.33;19.77;;;6.30;98.10;;;;;;5094266;28;20478;-60
2023/04/21 05:59:06;;;;;;;52.87;22.53;;;6.30;98.60;;;;;;5092113;28;20568;-61
2023/04/21 06:01:33;;;;;;;50.17;19.63;;;6.20;98.60;;;;;;5074210;28;20892;-60
2023/04/21 06:04:00;;;;;;;58.30;23.70;;;6.20;98.90;;;;;;5074791;28;20483;-60
2023/04/21 06:06:26;;;;;;;49.37;20.10;;;6.30;99.00;;;;;;5093195;28;20481;-60
2023/04/21 06:08:53;;;;;;;50.23;23.57;;;6.30;99.20;;;;;;5078356;28;21209;-60
2023/04/21 06:11:20;;;;;;;52.33;21.03;;;6.30;99.30;;;;;;5069795;28;21046;-60
2023/04/21 06:13:48;;;;;;;40.37;17.50;;;6.30;99.40;;;;;;5080017;28;20504;-60
2023/04/21 06:16:15;;;;;;;47.63;17.60;;;;;;;;;;5092265;28;21044;-60
2023/04/21 06:18:42;;;;;;;40.50;19.37;;;6.40;99.40;;;;;;5078058;28;20845;-60
2023/04/21 06:21:09;;;;;;;51.43;23.00;;;6.40;99.40;;;;;;5073290;28;20490;-60
2023/04/21 06:23:35;;;;;;;40.60;18.80;;;6.40;99.30;;;;;;5060833;28;20470;-60
2023/04/21 06:26:04;;;;;;;31.43;14.60;;;6.40;99.30;;;;;;5060332;28;20483;-60
2023/04/21 06:28:31;;;;;;;36.17;13.77;;;6.40;99.20;;;;;;5060174;28;20518;-60
2023/04/21 06:31:00;;;;;;;39.53;18.10;;;6.40;99.30;;;;;;5081905;28;20599;-60
2023/04/21 06:33:27;;;;;;;37.80;16.90;;;6.40;99.70;;;;;;5077395;28;20493;-60
2023/04/21 06:35:54;;;;;;;44.83;17.67;;;6.50;99.90;;;;;;5083700;28;20488;-60
2023/04/21 06:38:21;;;;;;;48.60;17.97;;;6.50;99.90;;;;;;5081916;28;20493;-60
2023/04/21 06:40:47;;;;;;;44.93;18.90;;;6.60;99.90;;;;;;5074074;28;20491;-60
2023/04/21 06:43:15;;;;;;;45.00;18.83;;;6.70;99.90;;;;;;5069459;28;20483;-60
2023/04/21 06:45:41;;;;;;;47.13;19.60;;;6.80;99.90;;;;;;5087044;28;20832;-60
2023/04/21 06:48:09;;;;;;;35.67;17.30;;;6.90;99.90;;;;;;5084549;28;20482;-60
2023/04/21 06:50:36;;;;;;;44.00;18.83;;;7.00;99.90;;;;;;5081285;28;20486;-60
2023/04/21 06:53:03;;;;;;;39.93;19.43;;;7.10;99.90;;;;;;5077597;28;20490;-60
2023/04/21 06:55:29;;;;;;;38.13;17.83;;;7.20;99.90;;;;;;5071419;28;20475;-60
2023/04/21 06:57:56;;;;;;;43.00;18.93;;;7.30;99.90;;;;;;5082305;28;20481;-60
2023/04/21 07:00:23;;;;;;;38.80;20.50;;;7.30;99.90;;;;;;5091963;28;20486;-60
2023/04/21 07:02:49;;;;;;;51.77;21.77;;;7.30;99.90;;;;;;5064189;28;20692;-61
2023/04/21 07:05:18;;;;;;;46.07;19.53;;;7.30;99.90;;;;;;5086165;28;20478;-60
2023/04/21 07:07:44;;;;;;;37.57;18.00;;;7.20;99.80;;;;;;5078599;28;20486;-60
2023/04/21 07:10:11;;;;;;;44.37;20.20;;;7.20;99.90;;;;;;5087492;28;20477;-60
2023/04/21 07:12:38;;;;;;;51.10;20.40;;;7.30;99.90;;;;;;5081181;28;21000;-61
2023/04/21 07:15:05;;;;;;;45.23;20.90;;;;;;;;;;5090363;28;21032;-60
2023/04/21 07:17:32;;;;;;;48.23;24.03;;;5.40;99.40;;;;;;5069467;28;20485;-60
2023/04/21 07:19:59;;;;;;;38.63;18.90;;;7.60;99.90;;;;;;5066474;28;20490;-60
2023/04/21 07:22:27;;;;;;;41.93;21.90;;;7.80;99.90;;;;;;5088129;28;20477;-60
2023/04/21 07:24:53;;;;;;;50.63;25.50;;;7.90;99.90;;;;;;5097109;28;20480;-60
2023/04/21 07:27:20;;;;;;;50.30;22.50;;;8.20;99.90;;;;;;5077163;28;20498;-61
2023/04/21 07:29:47;;;;;;;42.07;23.57;;;8.40;99.80;;;;;;5082676;28;20480;-60
2023/04/21 07:32:13;;;;;;;40.40;20.90;;;8.50;99.50;;;;;;5074475;28;20509;-60
2023/04/21 07:34:40;;;;;;;52.93;22.50;;;8.60;99.10;;;;;;5061170;28;20477;-59
2023/04/21 07:37:07;;;;;;;41.00;20.80;;;8.70;99.10;;;;;;5067533;28;20945;-59
2023/04/21 07:39:35;;;;;;;42.23;22.23;;;8.70;99.30;;;;;;5082660;28;20488;-60
2023/04/21 07:42:01;;;;;;;48.90;19.67;;;8.90;99.40;;;;;;5088750;28;20475;-59
2023/04/21 07:44:28;;;;;;;39.27;19.33;;;8.90;98.80;;;;;;5073290;28;20981;-59
2023/04/21 07:46:55;;;;;;;41.80;20.40;;;9.10;99.10;;;;;;5072916;28;21049;-59
2023/04/21 07:49:22;;;;;;;40.70;19.53;;;9.30;99.10;;;;;;5080710;28;20579;-60
2023/04/21 07:51:49;;;;;;;39.97;22.83;;;9.40;98.90;;;;;;5091601;28;20484;-59
2023/04/21 07:54:16;;;;;;;40.23;21.87;;;9.70;99.20;;;;;;5099281;28;20478;-59
2023/04/21 07:56:46;;;;;;;44.53;23.30;;;10.00;98.10;;;;;;5079346;28;20715;-60
2023/04/21 07:59:13;;;;;;;37.43;19.37;;;10.20;97.60;;;;;;5045517;28;20824;-60
2023/04/21 08:01:40;;;;;;;32.60;18.93;;;10.50;97.50;;;;;;5054643;28;20483;-59
2023/04/21 08:04:06;;;;;;;39.97;22.97;;;10.90;98.10;;;;;;5054209;28;20480;-59
2023/04/21 08:06:33;;;;;;;33.20;18.73;;;11.30;97.50;;;;;;5080347;28;20475;-60
2023/04/21 08:09:00;;;;;;;37.47;21.63;;;11.70;97.70;;;;;;5062012;28;20479;-60
2023/04/21 08:11:27;;;;;;;33.83;18.27;;;12.10;96.90;;;;;;5057021;28;20822;-60
2023/04/21 08:13:56;;;;;;;34.43;19.30;;;12.30;96.40;;;;;;5051280;28;20979;-61
2023/04/21 08:16:23;;;;;;;32.90;19.47;;;12.40;95.60;;;;;;5056957;28;21716;-60
2023/04/21 08:18:49;;;;;;;42.73;21.67;;;12.80;96.10;;;;;;5059695;28;20479;-60
2023/04/21 08:21:16;;;;;;;36.17;21.40;;;13.10;96.20;;;;;;5070364;28;20486;-60
2023/04/21 08:23:43;;;;;;;28.70;17.33;;;13.30;95.20;;;;;;5060676;28;20560;-60
2023/04/21 08:26:10;;;;;;;30.60;16.87;;;13.50;94.80;;;;;;5058170;28;20484;-60
2023/04/21 08:28:36;;;;;;;26.30;16.23;;;13.80;95.00;;;;;;5061159;28;20484;-60
2023/04/21 08:31:05;;;;;;;32.03;20.57;;;14.00;95.10;;;;;;5059454;28;20480;-60
2023/04/21 08:33:31;;;;;;;31.93;18.13;;;14.40;94.70;;;;;;5057207;28;20617;-60
2023/04/21 08:35:58;;;;;;;22.70;16.60;;;14.70;94.50;;;;;;5056880;28;20506;-60
2023/04/21 08:38:25;;;;;;;27.17;18.93;;;14.80;94.00;;;;;;5064309;28;20476;-60
2023/04/21 08:40:52;;;;;;;27.90;15.33;;;14.90;93.00;;;;;;5062046;28;20487;-61
2023/04/21 08:43:19;;;;;;;30.17;18.00;;;15.00;93.20;;;;;;5056764;28;20482;-61
2023/04/21 08:45:46;;;;;;;23.40;16.70;;;15.00;93.20;;;;;;5045881;28;20491;-60
2023/04/21 08:48:17;;;;;;;26.73;16.97;;;15.00;93.60;;;;;;5054176;28;20490;-62
2023/04/21 08:50:46;;;;;;;27.53;19.27;;;15.10;93.40;;;;;;5046828;28;20487;-61
2023/04/21 08:53:13;;;;;;;27.37;16.73;;;15.20;93.20;;;;;;5037698;28;20480;-60
2023/04/21 08:55:41;;;;;;;24.37;17.10;;;15.40;94.10;;;;;;5042342;28;20479;-60
2023/04/21 08:58:08;;;;;;;23.00;13.97;;;15.50;93.40;;;;;;5054621;28;20490;-61
2023/04/21 09:00:35;;;;;;;22.77;15.40;;;15.80;93.60;;;;;;5071913;28;20585;-61
2023/04/21 09:03:04;;;;;;;23.43;14.90;;;16.00;93.20;;;;;;5073743;28;20478;-60
2023/04/21 09:05:33;;;;;;;26.30;15.40;;;16.20;93.00;;;;;;5072918;28;20505;-60
2023/04/21 09:08:11;;;;;;;30.37;15.63;;;16.50;92.80;;;;;;5072986;28;20666;-60
2023/04/21 09:10:45;;;;;;;14.27;10.73;;;16.60;90.90;;;;;;5072160;28;20470;-60
2023/04/21 09:13:12;;;;;;;18.77;11.83;;;16.70;90.70;;;;;;5073191;28;20877;-60
2023/04/21 09:15:39;;;;;;;18.93;11.70;;;16.50;89.00;;;;;;5073501;28;20479;-61
2023/04/21 09:18:12;;;;;;;12.90;10.07;;;16.40;88.50;;;;;;5072574;28;20603;-61
2023/04/21 09:20:42;;;;;;;15.67;10.37;;;16.70;91.30;;;;;;5072498;28;20487;-60
2023/04/21 09:23:09;;;;;;;13.93;9.07;;;16.80;90.50;;;;;;5073162;28;20895;-60
2023/04/21 09:25:38;;;;;;;13.03;8.60;;;16.60;86.90;;;;;;5073412;28;20490;-60
2023/04/21 09:28:07;;;;;;;15.77;9.67;;;16.20;90.10;;;;;;5072002;28;20479;-60
2023/04/21 09:30:35;;;;;;;16.47;11.47;;;16.10;90.50;;;;;;5072783;28;20485;-60
2023/04/21 09:33:02;;;;;;;10.37;7.80;;;16.30;90.70;;;;;;5074115;28;20514;-60
2023/04/21 09:35:29;;;;;;;14.03;7.20;;;16.50;90.10;;;;;;5046751;28;20474;-61
2023/04/21 09:37:58;;;;;;;10.83;8.40;;;16.90;90.90;;;;;;5073906;28;20474;-60
2023/04/21 09:40:25;;;;;;;11.43;7.53;;;17.00;89.50;;;;;;5074248;28;20907;-61
2023/04/21 09:42:52;;;;;;;10.50;6.47;;;17.30;89.60;;;;;;5076157;28;20490;-61
2023/04/21 09:45:19;;;;;;;11.30;7.60;;;17.60;90.70;;;;;;5072987;28;20470;-60
2023/04/21 09:47:48;;;;;;;18.03;7.33;;;;;;;;;;5063775;28;20493;-60
2023/04/21 09:50:14;;;;;;;12.43;9.00;;;17.80;90.20;;;;;;5073818;28;20482;-61
2023/04/21 09:52:44;;;;;;;8.30;6.07;;;17.80;89.80;;;;;;5073998;28;20768;-61
2023/04/21 09:55:13;;;;;;;12.93;8.57;;;17.70;86.40;;;;;;5075559;28;20558;-60
2023/04/21 09:57:41;;;;;;;15.97;8.77;;;17.50;85.60;;;;;;5076470;28;20471;-61
2023/04/21 10:00:11;;;;;;;13.73;8.13;;;17.50;86.60;;;;;;5075571;28;20494;-61
2023/04/21 10:02:43;;;;;;;12.67;6.30;;;17.70;86.30;;;;;;5071923;28;20796;-61
2023/04/21 10:05:11;;;;;;;18.03;8.60;;;17.70;85.30;;;;;;5063146;28;20474;-61
2023/04/21 10:07:38;;;;;;;21.20;8.50;;;17.80;86.50;;;;;;5076996;28;20506;-61
2023/04/21 10:10:08;;;;;;;18.63;6.30;;;17.10;81.10;;;;;;5081762;28;20478;-60
2023/04/21 10:12:36;;;;;;;28.57;8.67;;;17.50;84.60;;;;;;5062278;28;20473;-61
2023/04/21 10:15:05;;;;;;;21.90;7.70;;;17.40;86.00;;;;;;5059381;28;20467;-61
2023/04/21 10:17:35;;;;;;;10.10;5.70;;;17.60;86.90;;;;;;5079331;28;20534;-61
2023/04/21 10:20:08;;;;;;;15.37;7.90;;;17.60;87.30;;;;;;5080087;28;21001;-61
2023/04/21 10:22:37;;;;;;;8.90;5.93;;;17.70;89.30;;;;;;5078041;28;20446;-61
2023/04/21 10:25:08;;;;;;;11.20;7.63;;;17.90;87.00;;;;;;5076171;28;20510;-61
2023/04/21 10:27:39;;;;;;;9.40;6.43;;;18.00;86.20;;;;;;5065132;28;20894;-62
2023/04/21 10:30:19;;;;;;;9.47;4.30;;;18.30;88.90;;;;;;5073577;28;20670;-64
2023/04/21 10:32:46;;;;;;;5.70;5.07;;;18.30;85.30;;;;;;5037983;28;20569;-62
2023/04/21 10:35:15;;;;;;;14.60;5.87;;;18.40;87.60;;;;;;5067972;28;20874;-63
2023/04/21 10:37:43;;;;;;;5.57;5.07;;;18.10;82.80;;;;;;5069621;28;20477;-62
2023/04/21 10:40:35;;;;;;;10.43;5.90;;;18.30;82.30;;;;;;5076764;28;20466;-63
2023/04/21 10:43:04;;;;;;;6.83;4.67;;;18.50;85.80;;;;;;5080686;28;20483;-62
2023/04/21 10:45:31;;;;;;;8.53;5.50;;;18.60;86.20;;;;;;5075220;28;21140;-62
2023/04/21 10:48:01;;;;;;;14.90;4.90;;;18.60;83.80;;;;;;5078472;28;20490;-63
2023/04/21 10:50:30;;;;;;;18.40;4.90;;;18.90;84.40;;;;;;5074998;28;20496;-63
2023/04/21 10:52:59;;;;;;;8.20;4.20;;;18.80;80.70;;;;;;5074240;28;20599;-62
2023/04/21 10:55:27;;;;;;;4.90;4.43;;;19.10;87.20;;;;;;5064789;28;20490;-63
2023/04/21 10:57:55;;;;;;;5.67;4.73;;;19.20;84.40;;;;;;5044332;28;21024;-62
2023/04/21 11:00:24;;;;;;;15.80;5.30;;;19.30;82.00;;;;;;5057274;28;20483;-62
2023/04/21 11:02:56;;;;;;;4.80;4.30;;;19.20;79.80;;;;;;5069157;28;20463;-62
2023/04/21 11:05:29;;;;;;;7.07;5.10;;;19.50;82.60;;;;;;5069300;28;21017;-62
2023/04/21 11:08:03;;;;;;;5.27;4.77;;;19.60;84.30;;;;;;5063628;28;20486;-62
2023/04/21 11:10:30;;;;;;;4.83;4.23;;;19.30;78.40;;;;;;5057157;28;20941;-62
2023/04/21 11:12:57;;;;;;;3.67;3.33;;;19.80;83.90;;;;;;5057535;28;20479;-62
2023/04/21 11:15:25;;;;;;;9.50;4.83;;;20.00;84.30;;;;;;5044413;28;20484;-62
2023/04/21 11:17:52;;;;;;;5.30;4.40;;;20.00;82.00;;;;;;5056813;28;20832;-62
2023/04/21 11:20:19;;;;;;;3.80;3.30;;;19.80;79.10;;;;;;5072616;28;20486;-62
2023/04/21 11:22:51;;;;;;;4.67;3.80;;;19.70;79.90;;;;;;5050779;28;20557;-63
2023/04/21 11:25:18;;;;;;;7.23;4.80;;;19.60;80.10;;;;;;5075369;28;20483;-63
2023/04/21 11:27:54;;;;;;;17.43;4.07;;;19.50;81.90;;;;;;5070630;28;20898;-62
2023/04/21 11:30:20;;;;;;;3.13;2.90;;;19.50;83.10;;;;;;5062522;28;20519;-62
2023/04/21 11:32:55;;;;;;;4.10;3.60;;;19.70;82.80;;;;;;5072309;28;20485;-63
2023/04/21 11:35:21;;;;;;;3.30;3.00;;;19.80;80.40;;;;;;5060301;28;20569;-63
2023/04/21 11:37:51;;;;;;;3.37;3.07;;;20.10;80.50;;;;;;5067700;28;20958;-63
2023/04/21 11:40:18;;;;;;;12.23;3.90;;;20.60;81.20;;;;;;5049415;28;21221;-62
2023/04/21 11:42:46;;;;;;;3.80;3.47;;;20.70;79.20;;;;;;5076700;28;20483;-62
2023/04/21 11:45:18;;;;;;;5.00;3.40;;;20.40;77.40;;;;;;5077209;28;20478;-63
2023/04/21 11:47:44;;;;;;;8.37;3.20;;;20.40;76.70;;;;;;5067353;28;20571;-63
2023/04/21 11:50:29;;;;;;;4.13;3.73;;;20.00;73.40;;;;;;5077777;28;21197;-63
2023/04/21 11:52:56;;;;;;;4.20;2.97;;;20.30;79.30;;;;;;5049412;28;20536;-63
2023/04/21 11:55:23;;;;;;;2.57;2.37;;;20.50;78.00;;;;;;5050775;28;20487;-63
2023/04/21 11:57:51;;;;;;;4.10;2.87;;;20.70;76.30;;;;;;5066781;28;20580;-63
2023/04/21 12:00:18;;;;;;;5.87;2.37;;;20.60;75.10;;;;;;5048341;28;20591;-64
2023/04/21 12:02:54;;;;;;;3.90;3.60;;;20.20;73.20;;;;;;5077921;28;20481;-64
2023/04/21 12:05:22;;;;;;;3.53;2.43;;;20.30;74.50;;;;;;5076345;28;20457;-63
2023/04/21 12:07:51;;;;;;;4.50;2.57;;;19.50;72.30;;;;;;5067869;28;20566;-63
2023/04/21 12:10:19;;;;;;;5.33;3.23;;;19.50;74.50;;;;;;5065518;28;20494;-63
2023/04/21 12:12:46;;;;;;;9.53;4.30;;;19.30;73.70;;;;;;5073185;28;20487;-63
2023/04/21 12:15:17;;;;;;;7.20;4.10;;;19.20;75.40;;;;;;5076198;28;20488;-63
2023/04/21 12:17:46;;;;;;;6.60;4.40;;;19.00;73.60;;;;;;5060233;28;20570;-64
2023/04/21 12:20:16;;;;;;;15.70;5.20;;;18.90;75.30;;;;;;5078621;28;20482;-63
2023/04/21 12:22:44;;;;;;;6.00;4.13;;;19.00;74.50;;;;;;5070410;28;20887;-63
2023/04/21 12:25:11;;;;;;;6.33;4.27;;;18.90;75.90;;;;;;5077240;28;20475;-63
2023/04/21 12:27:47;;;;;;;11.20;3.83;;;19.20;77.30;;;;;;5077230;28;20486;-65
2023/04/21 12:30:14;;;;;;;4.67;3.27;;;19.30;76.60;;;;;;5075572;28;20477;-63
2023/04/21 12:32:41;;;;;;;8.93;5.80;;;19.80;79.70;;;;;;5079376;28;20466;-63
2023/04/21 12:35:08;;;;;;;4.87;3.50;;;19.90;73.40;;;;;;5059074;28;20488;-62
2023/04/21 12:37:35;;;;;;;4.90;3.47;;;19.90;73.20;;;;;;5078342;28;20469;-63
2023/04/21 12:40:05;;;;;;;5.20;3.73;;;20.00;72.20;;;;;;5072996;28;20505;-63
2023/04/21 12:42:32;;;;;;;8.60;5.57;;;20.30;75.80;;;;;;5051245;28;20989;-63